ADDS METAR Data INFO
IDs: Format: Raw Decoded Include TAF

Data at: 0456 UTC 25 May 2018

KLBB 250453Z 16009KT 10SM CLR 25/13 A3005 RMK AO2 SLP121 T02500128
KLBB 250353Z 17010KT 10SM CLR 27/13 A3004 RMK AO2 SLP116 T02720128
KLBB 250253Z 17013KT 10SM CLR 28/13 A3002 RMK AO2 SLP112 T02830128 53002
KLBB 250153Z 18010KT 10SM FEW075 29/12 A3002 RMK AO2 SLP113 CB DSNT SE MOV S T02890117
KLBB 250053Z 18009KT 10SM FEW075 FEW250 31/11 A3001 RMK AO2 SLP111 T03060111
KLBB 242353Z 18012KT 10SM FEW075 FEW250 31/12 A3001 RMK AO2 SLP113 TCU DSNT NW-N T03110117 10322 20289 56016
KLBB 242253Z 16010G15KT 10SM FEW070 FEW250 32/13 A3003 RMK AO2 SLP118 TCU DSNT NW T03170128
KLBB 242153Z 19010G17KT 150V220 10SM FEW070 FEW250 32/13 A3005 RMK AO2 SLP123 T03170133
KLBB 242053Z 22013G18KT 10SM FEW060 FEW250 32/14 A3007 RMK AO2 SLP130 T03170139 58017
KLBB 241953Z COR 20012G18KT 10SM FEW060 31/14 A3009 RMK AO2 SLP135 T03110139
KLBB 241853Z 21015G21KT 10SM FEW050 SCT250 30/14 A3010 RMK AO2 SLP143 T03000139
KLBB 241753Z 19014G21KT 10SM FEW250 28/16 A3012 RMK AO2 SLP151 T02830156 10283 20178 58006
KLBB 241653Z 19012KT 10SM FEW050 FEW250 27/16 A3014 RMK AO2 SLP157 T02720161
KLBB 241553Z 18014KT 10SM CLR 26/16 A3013 RMK AO2 SLP157 T02610161
KLBB 241453Z 17011KT 10SM CLR 24/16 A3014 RMK AO2 SLP158 T02390156 51004
KLBB 241353Z 11010KT 10SM CLR 21/16 A3014 RMK AO2 SLP156 T02110156
KLBB 241253Z 09010KT 10SM CLR 19/16 A3013 RMK AO2 SLP156 T01890156
KLBB 241153Z 08009KT 10SM FEW050 FEW200 18/15 A3013 RMK AO2 SLP154 60000 70003 T01780150 10200 20178 51013
KLBB 241053Z 08008KT 10SM FEW250 18/14 A3012 RMK AO2 SLP150 T01780139
KLBB 240953Z 03010KT 10SM SCT250 18/14 A3010 RMK AO2 SLP146 T01830144
KLBB 240853Z 36006KT 10SM SCT200 SCT250 18/14 A3008 RMK AO2 TSE0756 SLP137 CB MOV NE 60000 T01830144 52001
KLBB 240756Z 12010KT 10SM FEW050 FEW100 SCT200 SCT250 19/14 A3006 RMK AO2 TSE56 TS MOV NE CB DSNT NE MOV NE T01940144
KLBB 240753Z 13009KT 10SM TS FEW050CB FEW100 SCT200 SCT250 19/14 A3007 RMK AO2 RAB39E52 TSB25 SLP131 OCNL LTGICCG NE TS NE MOV NE CB DSNT NE MOV NE P0000 T01940144
KLBB 240725Z 27005KT 10SM TS SCT050CB BKN100 BKN200 19/15 A3010 RMK AO2 LTG DSNT N TSB25 OCNL LTGICCG SW-NW TS SW-NW MOV NE CB DSNT SW-NW MOV NE T01940150
KLBB 240653Z 00000KT 10SM SCT050 SCT075 BKN100 BKN200 20/15 A3010 RMK AO2 SLP143 T02000150
KLBB 240553Z 00000KT 10SM BKN150 BKN200 19/14 A3008 RMK AO2 SLP139 60003 T01940144 10289 20189 403060172 58008
KLBB 240453Z 23003KT 10SM FEW065 FEW120 OVC200 20/13 A3007 RMK AO2 SLP136 T02000133
KLBB 240353Z 26014KT 10SM FEW044 BKN080 BKN100 OVC160 20/14 A3012 RMK AO2 PK WND 24034/0255 WSHFT 0240 RAB0258E51 TSE38 SLP154 P0003 T02000139
KLBB 240340Z 26017KT 10SM -RA FEW044 SCT080 BKN095 OVC160 20/14 A3012 RMK AO2 PK WND 24034/0255 WSHFT 0240 LTG DSNT N RAB0258 TSE38 OCNL LTGCG DSNT N CB DSNT N MOV NE P0003 T02000139
KLBB 240258Z 24024G39KT 6SM -TSRA BLDU BKN065CB BKN080 BKN120 OVC180 23/12 A3011 RMK AO2 PK WND 24034/0255 WSHFT 0240 LTG DSNT S-NW RAB58 PRESRR FRQ LTGICCG S-W-NW TS S-W-NW MOV NE P0000 T02280122
KLBB 240240Z 16015KT 10SM TS SCT075CB BKN120 OVC180 27/14 A3007 RMK AO2 LTG DSNT S-W TSB39 FRQ LTGICCG S-W FRQ LTGICCG DSNT W-NW TS S-W MOV NE CB DSNT W-NW MOV NE BLDU S-W T02670139
KLBB 240153Z 16014KT 10SM FEW060 SCT120 BKN180 27/13 A3005 RMK AO2 SLP126 OCNL LTGCG DSNT SW-NW CB DSNT SW-NW MOV NE CB DSNT N MOV NE T02720133
KLBB 240053Z 16019KT 10SM SCT065 SCT080 BKN110 BKN200 28/13 A3003 RMK AO2 SLP120 CB DSNT SW-NW AND N MOV NE ACC SW T02830133
KLBB 232353Z 15017G22KT 10SM SCT065 SCT200 BKN250 29/13 A2999 RMK AO2 PK WND 15027/2327 SLP105 CB DSNT SW-W MOV NE T02890128 10306 20261 55014
KLBB 232253Z 14016G25KT 10SM SCT060 SCT250 30/13 A2998 RMK AO2 PK WND 16026/2159 SLP103 T03000133
KLBB 232153Z 15017G24KT 10SM SCT060 SCT250 29/14 A3001 RMK AO2 SLP112 T02940139
KLBB 232053Z 16016G24KT 10SM SCT055 SCT200 30/14 A3003 RMK AO2 PK WND 17026/2041 SLP119 T03000139 58019
KLBB 231953Z 17016G21KT 10SM SCT045 29/16 A3006 RMK AO2 SLP130 T02890156
KLBB 231853Z 16017G23KT 10SM SCT040 SCT060 28/16 A3008 RMK AO2 PK WND 18028/1838 SLP137 T02780156
KLBB 231753Z 16018KT 10SM SCT030 BKN036 BKN043 26/16 A3009 RMK AO2 SLP142 CB DSNT W MOV NE T02610161 10267 20178 58004
KLBB 231712Z 17014KT 10SM BKN028 BKN034 26/17 A3010 RMK AO2 T02560167